Ataq, Yemen

11:49 AM AST on September 20, 2014 (GMT +0300)
Ataq | Change Station
CLOSE
Current Station
Airport
Location: Ataq,
Elevation: 3501 ft
Nearby Weather Stations

Elev 3501 ft 14.52 °N, 46.85 °E | Updated 1 hour ago

Partly Cloudy
Partly Cloudy
88 °F
Feels Like 86 °F
N
12
Wind Variable Wind from SE

Today
High -- | Low -- °F
--% Chance of Precip.
Yesterday
High -- | Low -- °F
Precip. -- in
5:41 AM 5:50 PM
Waning Crescent, 13% visible
Pressure 30.06 in
Visibility 6.2 miles
Clouds Few 3000 ft
Heat Index 86 °F
Dew Point 55 °F
Humidity 33%
Rainfall 0.00 in
Snow Depth Not available.
UV 13 out of 12
Pollen Not available.
Air Quality Not available.
Flu Activity Not available.
METAR OYAT 200700Z 13010KT 9999 FEW030 31/13 Q1018

More Conditions Fewer Conditions

Pressure 30.06 in
Visibility 6.2 miles
Clouds Few 3000 ft
Heat Index 86 °F
Dew Point 55 °F
Humidity 33%
Rainfall 0.00 in
Snow Depth Not available.
UV 13 out of 12
Pollen Not available.
Air Quality Not available.
Flu Activity Not available.
METAR OYAT 200700Z 13010KT 9999 FEW030 31/13 Q1018

More Conditions Fewer Conditions

10-Day Weather Forecast

Almanac

Astronomy

Sep. 20, 2014 Rise Set
Actual Time 5:41 AM AST 5:50 PM AST
Civil Twilight 5:20 AM AST 6:11 PM AST
Nautical Twilight 4:55 AM AST 6:36 PM AST
Astronomical Twilight 4:30 AM AST 7:01 PM AST
Moon 2:28 AM AST 3:16 PM AST
Length of Visible Light 12h 51m
Length of Day
12h 08m
Tomorrow will be 0m 49s shorter.
Waning Crescent, 13% of the Moon is Illuminated
Today
Waning Crescent
Sep 24
New
Oct 1
First Quarter
Oct 8
Full
Oct 15
Last Quarter

Yesterday's Extremes

Country Highs Country Lows

Community

WunderPhotos

Upload Photos

1,754,793 photos uploaded!

WunderBlogs® & News

Nearby

Snow Depth

Not available.

Earthquake Activity

City Distance Mag. Time & Date
No recent earthquake activity has been reported nearby.
Minimum magnitude displayed is 2.5.

Coastal Water Temperatures

Place Temperature
No Stations Reporting

Nearby Weather Stations